sim
Sign-in with your pilot id or email,
or register
Callsign
Passwort

Schedule Details

Flight Number: OEO7997
Departure: Charlotte Douglas International Airport (KCLT) at 03:40
Arrival: Munich Airport (EDDM) at 12:50

Weather Information
Getting current METAR information for KCLT 261852Z 03008KT 10SM SCT022 BKN028 23/18 A3002 RMK AO2 SLP159 T02330178
Getting current METAR information for EDDM 261850Z 24019KT 9999 -RA SCT023 BKN033 07/04 Q1001 NOSIG

Schedule Frequency

Route Map